sensor_id;sensor_type;location;lat;lon;timestamp;P1;durP1;ratioP1;P2;durP2;ratioP2
22861;SDS011;11598;50.652;6.172;2023-02-16T00:00:00;27.27;;;13.30;;
22861;SDS011;11598;50.652;6.172;2023-02-16T00:10:00;26.38;;;13.35;;
22861;SDS011;11598;50.652;6.172;2023-02-16T00:20:04;24.38;;;13.18;;
22861;SDS011;11598;50.652;6.172;2023-02-16T00:30:17;24.13;;;11.63;;
22861;SDS011;11598;50.652;6.172;2023-02-16T00:40:19;24.13;;;10.98;;
22861;SDS011;11598;50.652;6.172;2023-02-16T00:50:24;18.25;;;10.18;;
22861;SDS011;11598;50.652;6.172;2023-02-16T01:00:33;24.92;;;10.52;;
22861;SDS011;11598;50.652;6.172;2023-02-16T01:10:35;19.85;;;10.10;;
22861;SDS011;11598;50.652;6.172;2023-02-16T01:20:55;18.52;;;9.23;;
22861;SDS011;11598;50.652;6.172;2023-02-16T01:30:56;19.85;;;10.32;;
22861;SDS011;11598;50.652;6.172;2023-02-16T01:51:58;23.10;;;11.98;;
22861;SDS011;11598;50.652;6.172;2023-02-16T02:02:10;30.13;;;14.98;;
22861;SDS011;11598;50.652;6.172;2023-02-16T02:12:45;26.75;;;14.50;;
22861;SDS011;11598;50.652;6.172;2023-02-16T02:53:52;29.38;;;15.57;;
22861;SDS011;11598;50.652;6.172;2023-02-16T03:04:16;26.23;;;14.02;;
22861;SDS011;11598;50.652;6.172;2023-02-16T03:24:28;26.92;;;13.23;;
22861;SDS011;11598;50.652;6.172;2023-02-16T03:34:50;29.27;;;14.10;;
22861;SDS011;11598;50.652;6.172;2023-02-16T03:44:51;21.20;;;12.40;;
22861;SDS011;11598;50.652;6.172;2023-02-16T03:54:51;27.43;;;12.97;;
22861;SDS011;11598;50.652;6.172;2023-02-16T04:04:52;19.85;;;11.85;;
22861;SDS011;11598;50.652;6.172;2023-02-16T04:14:52;19.15;;;11.10;;
22861;SDS011;11598;50.652;6.172;2023-02-16T04:24:52;21.42;;;11.13;;
22861;SDS011;11598;50.652;6.172;2023-02-16T04:34:53;20.55;;;10.63;;
22861;SDS011;11598;50.652;6.172;2023-02-16T04:44:53;21.98;;;11.23;;
22861;SDS011;11598;50.652;6.172;2023-02-16T04:54:53;19.80;;;11.30;;
22861;SDS011;11598;50.652;6.172;2023-02-16T05:04:54;18.42;;;10.73;;
22861;SDS011;11598;50.652;6.172;2023-02-16T05:14:54;21.83;;;11.85;;
22861;SDS011;11598;50.652;6.172;2023-02-16T05:24:54;18.40;;;10.82;;
22861;SDS011;11598;50.652;6.172;2023-02-16T05:34:55;22.55;;;11.50;;
22861;SDS011;11598;50.652;6.172;2023-02-16T05:44:55;19.27;;;10.43;;
22861;SDS011;11598;50.652;6.172;2023-02-16T05:54:55;18.85;;;10.88;;
22861;SDS011;11598;50.652;6.172;2023-02-16T06:04:56;19.08;;;10.80;;
22861;SDS011;11598;50.652;6.172;2023-02-16T06:14:56;19.77;;;10.77;;
22861;SDS011;11598;50.652;6.172;2023-02-16T06:24:57;16.13;;;10.02;;
22861;SDS011;11598;50.652;6.172;2023-02-16T06:34:57;16.58;;;9.60;;
22861;SDS011;11598;50.652;6.172;2023-02-16T06:44:58;20.73;;;10.48;;
22861;SDS011;11598;50.652;6.172;2023-02-16T06:54:58;17.02;;;10.35;;
22861;SDS011;11598;50.652;6.172;2023-02-16T07:04:59;20.53;;;12.23;;
22861;SDS011;11598;50.652;6.172;2023-02-16T07:14:59;20.63;;;12.15;;
22861;SDS011;11598;50.652;6.172;2023-02-16T07:24:59;19.55;;;11.20;;
22861;SDS011;11598;50.652;6.172;2023-02-16T07:35:00;27.67;;;12.75;;
22861;SDS011;11598;50.652;6.172;2023-02-16T07:45:00;21.23;;;11.60;;
22861;SDS011;11598;50.652;6.172;2023-02-16T07:55:00;19.17;;;11.85;;
22861;SDS011;11598;50.652;6.172;2023-02-16T08:05:01;17.95;;;11.18;;
22861;SDS011;11598;50.652;6.172;2023-02-16T08:15:01;18.33;;;9.60;;
22861;SDS011;11598;50.652;6.172;2023-02-16T08:25:03;16.88;;;10.00;;
22861;SDS011;11598;50.652;6.172;2023-02-16T08:35:04;19.48;;;10.95;;
22861;SDS011;11598;50.652;6.172;2023-02-16T08:45:06;19.08;;;10.45;;
22861;SDS011;11598;50.652;6.172;2023-02-16T08:55:06;18.67;;;11.10;;
22861;SDS011;11598;50.652;6.172;2023-02-16T09:05:07;21.88;;;11.63;;
22861;SDS011;11598;50.652;6.172;2023-02-16T09:15:07;18.92;;;11.00;;
22861;SDS011;11598;50.652;6.172;2023-02-16T09:25:08;19.40;;;11.15;;
22861;SDS011;11598;50.652;6.172;2023-02-16T09:35:10;15.80;;;9.93;;
22861;SDS011;11598;50.652;6.172;2023-02-16T09:45:12;13.52;;;9.55;;
22861;SDS011;11598;50.652;6.172;2023-02-16T09:55:16;16.45;;;9.50;;
22861;SDS011;11598;50.652;6.172;2023-02-16T10:05:28;16.17;;;9.80;;
22861;SDS011;11598;50.652;6.172;2023-02-16T10:15:31;18.20;;;9.75;;
22861;SDS011;11598;50.652;6.172;2023-02-16T10:36:00;15.68;;;9.57;;
22861;SDS011;11598;50.652;6.172;2023-02-16T10:46:24;17.45;;;10.35;;
22861;SDS011;11598;50.652;6.172;2023-02-16T11:06:32;16.37;;;10.93;;
22861;SDS011;11598;50.652;6.172;2023-02-16T11:16:33;21.83;;;11.35;;
22861;SDS011;11598;50.652;6.172;2023-02-16T11:26:34;17.15;;;10.48;;
22861;SDS011;11598;50.652;6.172;2023-02-16T11:36:36;18.20;;;10.93;;
22861;SDS011;11598;50.652;6.172;2023-02-16T11:46:40;17.83;;;9.45;;
22861;SDS011;11598;50.652;6.172;2023-02-16T11:56:40;18.50;;;10.50;;
22861;SDS011;11598;50.652;6.172;2023-02-16T12:27:00;17.73;;;10.38;;
22861;SDS011;11598;50.652;6.172;2023-02-16T12:58:22;15.20;;;8.60;;
22861;SDS011;11598;50.652;6.172;2023-02-16T13:08:29;14.20;;;8.20;;
22861;SDS011;11598;50.652;6.172;2023-02-16T13:18:38;14.10;;;7.03;;
22861;SDS011;11598;50.652;6.172;2023-02-16T13:49:37;12.73;;;7.13;;
22861;SDS011;11598;50.652;6.172;2023-02-16T13:59:48;13.18;;;5.47;;
22861;SDS011;11598;50.652;6.172;2023-02-16T14:09:58;14.60;;;5.00;;
22861;SDS011;11598;50.652;6.172;2023-02-16T14:29:59;16.38;;;4.93;;
22861;SDS011;11598;50.652;6.172;2023-02-16T14:40:20;13.88;;;5.45;;
22861;SDS011;11598;50.652;6.172;2023-02-16T15:11:20;12.77;;;4.07;;
22861;SDS011;11598;50.652;6.172;2023-02-16T15:22:07;10.90;;;3.95;;
22861;SDS011;11598;50.652;6.172;2023-02-16T15:32:18;8.57;;;3.80;;
22861;SDS011;11598;50.652;6.172;2023-02-16T15:42:20;10.13;;;3.85;;
22861;SDS011;11598;50.652;6.172;2023-02-16T15:52:29;15.50;;;4.30;;
22861;SDS011;11598;50.652;6.172;2023-02-16T16:02:37;9.40;;;4.65;;
22861;SDS011;11598;50.652;6.172;2023-02-16T16:12:39;11.15;;;4.55;;
22861;SDS011;11598;50.652;6.172;2023-02-16T16:22:40;11.93;;;6.20;;
22861;SDS011;11598;50.652;6.172;2023-02-16T16:32:42;12.43;;;6.65;;
22861;SDS011;11598;50.652;6.172;2023-02-16T16:53:02;13.07;;;6.82;;
22861;SDS011;11598;50.652;6.172;2023-02-16T17:03:22;13.25;;;5.43;;
22861;SDS011;11598;50.652;6.172;2023-02-16T17:13:22;9.60;;;4.80;;
22861;SDS011;11598;50.652;6.172;2023-02-16T17:23:23;13.13;;;3.97;;
22861;SDS011;11598;50.652;6.172;2023-02-16T17:33:23;8.10;;;3.25;;
22861;SDS011;11598;50.652;6.172;2023-02-16T17:43:24;8.60;;;3.40;;
22861;SDS011;11598;50.652;6.172;2023-02-16T17:53:25;10.02;;;2.70;;
22861;SDS011;11598;50.652;6.172;2023-02-16T18:03:27;6.85;;;2.67;;
22861;SDS011;11598;50.652;6.172;2023-02-16T18:13:28;4.22;;;1.80;;
22861;SDS011;11598;50.652;6.172;2023-02-16T18:23:28;8.80;;;2.78;;
22861;SDS011;11598;50.652;6.172;2023-02-16T18:33:29;8.82;;;4.57;;
22861;SDS011;11598;50.652;6.172;2023-02-16T18:43:30;11.43;;;5.28;;
22861;SDS011;11598;50.652;6.172;2023-02-16T18:53:31;14.95;;;7.25;;
22861;SDS011;11598;50.652;6.172;2023-02-16T19:03:31;16.70;;;8.40;;
22861;SDS011;11598;50.652;6.172;2023-02-16T19:13:31;17.55;;;9.65;;
22861;SDS011;11598;50.652;6.172;2023-02-16T19:23:32;17.85;;;9.35;;
22861;SDS011;11598;50.652;6.172;2023-02-16T19:33:33;16.83;;;9.25;;
22861;SDS011;11598;50.652;6.172;2023-02-16T19:43:33;18.33;;;9.55;;
22861;SDS011;11598;50.652;6.172;2023-02-16T19:53:34;18.58;;;12.15;;
22861;SDS011;11598;50.652;6.172;2023-02-16T20:03:36;22.38;;;12.98;;
22861;SDS011;11598;50.652;6.172;2023-02-16T20:13:37;24.80;;;13.48;;
22861;SDS011;11598;50.652;6.172;2023-02-16T20:23:37;29.25;;;16.13;;
22861;SDS011;11598;50.652;6.172;2023-02-16T20:33:39;26.23;;;15.23;;
22861;SDS011;11598;50.652;6.172;2023-02-16T20:43:40;26.77;;;15.88;;
22861;SDS011;11598;50.652;6.172;2023-02-16T20:53:41;29.02;;;16.27;;
22861;SDS011;11598;50.652;6.172;2023-02-16T21:03:42;28.38;;;16.27;;
22861;SDS011;11598;50.652;6.172;2023-02-16T21:13:42;25.52;;;14.63;;
22861;SDS011;11598;50.652;6.172;2023-02-16T21:23:44;22.15;;;14.07;;
22861;SDS011;11598;50.652;6.172;2023-02-16T21:33:46;23.92;;;13.43;;
22861;SDS011;11598;50.652;6.172;2023-02-16T21:43:46;21.80;;;12.95;;
22861;SDS011;11598;50.652;6.172;2023-02-16T21:53:47;20.70;;;12.30;;
22861;SDS011;11598;50.652;6.172;2023-02-16T22:03:47;21.98;;;12.80;;
22861;SDS011;11598;50.652;6.172;2023-02-16T22:13:51;23.40;;;11.98;;
22861;SDS011;11598;50.652;6.172;2023-02-16T22:23:52;20.45;;;12.35;;
22861;SDS011;11598;50.652;6.172;2023-02-16T22:33:54;22.50;;;12.25;;
22861;SDS011;11598;50.652;6.172;2023-02-16T22:43:55;21.45;;;12.60;;
22861;SDS011;11598;50.652;6.172;2023-02-16T22:53:56;18.35;;;11.40;;
22861;SDS011;11598;50.652;6.172;2023-02-16T23:03:59;17.58;;;10.80;;
22861;SDS011;11598;50.652;6.172;2023-02-16T23:14:00;19.85;;;11.35;;
22861;SDS011;11598;50.652;6.172;2023-02-16T23:24:01;18.80;;;10.27;;
22861;SDS011;11598;50.652;6.172;2023-02-16T23:34:01;21.90;;;10.52;;
22861;SDS011;11598;50.652;6.172;2023-02-16T23:44:03;20.00;;;9.52;;
22861;SDS011;11598;50.652;6.172;2023-02-16T23:54:05;17.42;;;9.90;;
